Aeroporto :
LOGIN :

Iscrizione | Disclaimer

   EN    FR    IT 

 










Sommario :    VFR   VFR Marginale   IFR   IFR Intensivo   IFR Molto Intensivo
Visibilità : 
Base nubi : 
>= 8 km
>= 3000ft
5 / 8 km
1000 / 3000 ft
1500m / 5 km
500 / 1000 ft
800 / 1500m
200 / 500 ft
< 800m
< 200 ft
Simboli :   Temporali  Nebbia  Neve Forte  Precipitazioni Forti  Vento > 20 kt
SIGMETs :   Varie  Temporali  Ghiacco  Turbolenza  Onda orograficha  Ceneri Vulcaniche







- Altitudine del aeroporto : 287 ft
- Carte del aeroporto


LFRL - Lanveoc Poulmic

ULTIMO METAR :
  • 190830Z AUTO 35008KT 310V030 9999 FEW015 OVC130 14/10 Q1011

METARs OBSOLETI :
  • 190800Z AUTO 34008KT 9999 FEW012 OVC130 13/10 Q1011
  • 190730Z AUTO 34009KT 320V030 9999 SCT011 OVC130 13/10 Q1011
  • 190700Z AUTO 34008KT 320V020 9999 BKN011 BKN094 OVC120 12/10 Q1011
  • 190630Z AUTO 35008KT 330V030 9999 FEW010 SCT076 BKN094 12/10 Q1010
  • 190600Z AUTO 35008KT 320V030 9999 BKN010 OVC074 12/10 Q1010

Previsioni scadute.
Nessun NOTAM noto per questo aeroporto.



MetMap, La meteo Aeronautica in un colpo d'occhio ! - Copyright ORBIFLY Dicembre 2007 - Disclaimer

ORBIFLY MET'MAP TEAM :

Programmazione e sviluppo : Alexandra Zaïnal
Concezione e sviluppo : Baudouin d'Aumeries
Co-Programmazione e sviluppo : Marc-Olivier Méhu
Supporto tecnico e logistico : Manuel Goepfert
Aiuto per la traduzione : Arnaldo La Scala

Contatto : metmap@orbifly.com




FONTI E CREDITI :

   NOAA